createdAt,value
2018-02-20T00:01:58.784Z,27.60
2018-02-20T00:04:26.375Z,26.53
2018-02-20T00:06:54.168Z,28.17
2018-02-20T00:09:21.792Z,27.40
2018-02-20T00:11:49.406Z,28.83
2018-02-20T00:14:17.796Z,27.73
2018-02-20T00:16:46.176Z,26.60
2018-02-20T00:19:14.570Z,28.67
2018-02-20T00:21:42.954Z,28.70
2018-02-20T00:24:11.348Z,31.60
2018-02-20T00:26:39.716Z,26.80
2018-02-20T00:29:08.472Z,26.60
2018-02-20T00:31:36.078Z,27.40
2018-02-20T00:34:04.456Z,30.17
2018-02-20T00:36:34.615Z,30.40
2018-02-20T00:39:02.218Z,28.90
2018-02-20T00:41:29.857Z,26.67
2018-02-20T00:43:57.454Z,26.83
2018-02-20T00:46:25.100Z,28.50
2018-02-20T00:48:52.690Z,26.43
2018-02-20T00:51:20.636Z,28.33
2018-02-20T00:53:48.427Z,28.70
2018-02-20T00:56:16.036Z,28.37
2018-02-20T00:58:43.681Z,29.97
2018-02-20T01:01:12.048Z,29.30
2018-02-20T01:03:41.193Z,26.43
2018-02-20T01:06:08.867Z,29.77
2018-02-20T01:08:36.463Z,28.83
2018-02-20T01:11:04.092Z,27.80
2018-02-20T01:13:31.675Z,27.70
2018-02-20T01:15:59.413Z,33.47
2018-02-20T01:18:27.769Z,28.90
2018-02-20T01:20:56.884Z,27.83
2018-02-20T01:23:25.246Z,31.90
2018-02-20T01:25:52.862Z,28.33
2018-02-20T01:28:20.454Z,29.73
2018-02-20T01:30:48.061Z,29.53
2018-02-20T01:33:16.490Z,30.50
2018-02-20T01:35:44.116Z,31.37
2018-02-20T01:38:12.592Z,29.20
2018-02-20T01:40:40.214Z,29.37
2018-02-20T01:43:07.842Z,30.53
2018-02-20T01:45:36.216Z,29.90
2018-02-20T01:48:04.766Z,32.33
2018-02-20T01:50:32.378Z,33.17
2018-02-20T01:53:00.817Z,32.00
2018-02-20T01:55:28.452Z,32.53
2018-02-20T01:57:56.060Z,34.67
2018-02-20T02:00:23.688Z,34.07
2018-02-20T02:02:51.282Z,34.60
2018-02-20T02:05:18.893Z,31.53
2018-02-20T02:07:47.245Z,34.03
2018-02-20T02:10:16.372Z,28.80
2018-02-20T02:12:44.774Z,31.47
2018-02-20T02:15:12.371Z,33.97
2018-02-20T02:17:39.990Z,31.53
2018-02-20T02:20:08.500Z,30.47
2018-02-20T02:22:36.149Z,32.60
2018-02-20T02:25:03.758Z,32.00
2018-02-20T02:27:31.379Z,36.33
2018-02-20T02:29:59.004Z,32.23
2018-02-20T02:32:28.365Z,32.83
2018-02-20T02:34:56.005Z,30.77
2018-02-20T02:37:24.366Z,31.93
2018-02-20T02:39:52.753Z,31.97
2018-02-20T02:42:21.141Z,33.00
2018-02-20T02:44:48.798Z,31.70
2018-02-20T02:47:17.171Z,31.90
2018-02-20T02:49:44.767Z,31.67
2018-02-20T02:52:13.144Z,28.50
2018-02-20T02:54:40.748Z,31.37
2018-02-20T02:57:08.379Z,30.90
2018-02-20T02:59:36.745Z,30.57
2018-02-20T03:02:04.976Z,28.00
2018-02-20T03:04:32.577Z,37.03
2018-02-20T03:07:00.210Z,32.70
2018-02-20T03:09:27.812Z,33.70
2018-02-20T03:11:55.402Z,30.83
2018-02-20T03:14:23.752Z,30.80
2018-02-20T03:16:51.354Z,31.97
2018-02-20T03:19:19.874Z,32.53
2018-02-20T03:21:47.492Z,34.13
2018-02-20T03:24:15.873Z,32.43
2018-02-20T03:26:44.254Z,34.23
2018-02-20T03:29:11.858Z,32.20
2018-02-20T03:31:39.473Z,32.73
2018-02-20T03:34:07.090Z,33.10
2018-02-20T03:36:34.737Z,33.23
2018-02-20T03:39:03.092Z,32.57
2018-02-20T03:41:30.989Z,32.40
2018-02-20T03:43:59.452Z,31.33
2018-02-20T03:46:27.064Z,29.90
2018-02-20T03:48:54.700Z,34.00
2018-02-20T03:51:23.166Z,33.57
2018-02-20T03:53:50.796Z,33.40
2018-02-20T03:56:18.401Z,33.07
2018-02-20T03:58:46.329Z,34.70
2018-02-20T04:01:13.957Z,34.37
2018-02-20T04:03:42.323Z,32.23
2018-02-20T04:06:10.154Z,34.50
2018-02-20T04:08:37.765Z,33.70
2018-02-20T04:11:05.397Z,33.50
2018-02-20T04:13:32.999Z,34.50
2018-02-20T04:16:01.388Z,32.80
2018-02-20T04:18:29.785Z,35.07
2018-02-20T04:20:58.159Z,33.20
2018-02-20T04:23:26.537Z,34.00
2018-02-20T04:25:54.151Z,33.80
2018-02-20T04:28:21.779Z,32.60
2018-02-20T04:30:50.143Z,32.67
2018-02-20T04:33:18.517Z,34.07
2018-02-20T04:35:46.179Z,33.70
2018-02-20T04:38:13.755Z,31.27
2018-02-20T04:40:42.957Z,34.87
2018-02-20T04:43:10.751Z,32.83
2018-02-20T04:45:46.512Z,33.23
2018-02-20T04:48:14.138Z,35.20
2018-02-20T04:50:42.276Z,34.27
2018-02-20T04:53:09.889Z,33.83
2018-02-20T04:55:37.608Z,34.73
2018-02-20T04:58:05.223Z,33.07
2018-02-20T05:00:33.586Z,34.97
2018-02-20T05:03:01.221Z,31.00
2018-02-20T05:05:28.838Z,34.60
2018-02-20T05:07:57.222Z,34.27
2018-02-20T05:10:26.320Z,33.70
2018-02-20T05:12:53.942Z,31.73
2018-02-20T05:15:21.546Z,34.40
2018-02-20T05:17:50.667Z,33.23
2018-02-20T05:20:19.670Z,35.97
2018-02-20T05:22:48.054Z,32.73
2018-02-20T05:25:16.458Z,34.27
2018-02-20T05:27:44.058Z,34.07
2018-02-20T05:30:11.688Z,35.77
2018-02-20T05:32:39.462Z,35.77
2018-02-20T05:35:07.074Z,35.07
2018-02-20T05:37:34.717Z,34.03
2018-02-20T05:40:02.343Z,34.87
2018-02-20T05:42:30.746Z,36.70
2018-02-20T05:44:58.330Z,34.17
2018-02-20T05:47:26.044Z,37.13
2018-02-20T05:49:54.408Z,36.10
2018-02-20T05:52:22.814Z,38.70
2018-02-20T05:54:51.270Z,35.33
2018-02-20T05:57:19.034Z,37.90
2018-02-20T05:59:46.658Z,36.13
2018-02-20T06:02:14.258Z,34.13
2018-02-20T06:04:41.884Z,36.27
2018-02-20T06:07:09.494Z,35.23
2018-02-20T06:09:37.141Z,36.37
2018-02-20T06:12:04.720Z,37.40
2018-02-20T06:14:32.579Z,35.97
2018-02-20T06:17:00.188Z,36.97
2018-02-20T06:19:28.576Z,38.23
2018-02-20T06:21:56.973Z,37.77
2018-02-20T06:24:25.410Z,36.30
2018-02-20T06:26:53.029Z,38.00
2018-02-20T06:29:21.817Z,36.80
2018-02-20T06:31:50.213Z,34.80
2018-02-20T06:34:17.821Z,36.10
2018-02-20T06:36:45.441Z,39.27
2018-02-20T06:39:13.059Z,37.23
2018-02-20T06:41:40.670Z,34.93
2018-02-20T06:44:08.294Z,40.97
2018-02-20T06:46:35.971Z,37.60
2018-02-20T06:49:03.612Z,38.57
2018-02-20T06:51:31.221Z,38.20
2018-02-20T06:53:59.748Z,37.33
2018-02-20T06:56:27.372Z,37.93
2018-02-20T06:58:55.846Z,37.30
2018-02-20T07:01:24.223Z,35.10
2018-02-20T07:03:52.599Z,38.00
2018-02-20T07:06:20.234Z,39.97
2018-02-20T07:08:47.834Z,39.10
2018-02-20T07:11:17.198Z,37.03
2018-02-20T07:13:44.822Z,38.37
2018-02-20T07:16:12.437Z,34.90
2018-02-20T07:18:40.057Z,39.20
2018-02-20T07:21:08.447Z,40.33
2018-02-20T07:23:36.852Z,38.87
2018-02-20T07:26:04.449Z,39.47
2018-02-20T07:28:32.069Z,37.83
2018-02-20T07:30:59.674Z,39.47
2018-02-20T07:33:27.287Z,41.10
2018-02-20T07:35:55.701Z,38.73
2018-02-20T07:38:23.350Z,39.47
2018-02-20T07:40:51.743Z,37.63
2018-02-20T07:43:19.366Z,42.90
2018-02-20T07:45:47.768Z,41.30
2018-02-20T07:48:16.313Z,39.73
2018-02-20T07:50:43.925Z,38.80
2018-02-20T07:53:12.415Z,35.23
2018-02-20T07:55:40.789Z,41.30
2018-02-20T07:58:09.208Z,41.80
2018-02-20T08:00:36.811Z,42.40
2018-02-20T08:03:04.601Z,42.37
2018-02-20T08:05:32.214Z,42.87
2018-02-20T08:07:59.933Z,41.50
2018-02-20T08:10:28.331Z,41.90
2018-02-20T08:12:56.702Z,41.33
2018-02-20T08:15:25.099Z,42.50
2018-02-20T08:17:53.483Z,39.50
2018-02-20T08:20:21.878Z,41.60
2018-02-20T08:22:50.241Z,43.53
2018-02-20T08:25:18.224Z,40.00
2018-02-20T08:27:46.600Z,36.03
2018-02-20T08:30:14.982Z,35.90
2018-02-20T08:32:43.375Z,33.30
2018-02-20T08:35:11.754Z,31.17
2018-02-20T08:37:40.259Z,32.30
2018-02-20T08:40:07.868Z,31.40
2018-02-20T08:42:35.483Z,30.57
2018-02-20T08:45:03.847Z,30.77
2018-02-20T08:47:31.459Z,31.37
2018-02-20T08:49:59.171Z,28.50
2018-02-20T08:52:26.782Z,27.03
2018-02-20T08:54:55.821Z,29.00
2018-02-20T08:57:24.212Z,29.37
2018-02-20T08:59:52.604Z,29.47
2018-02-20T09:02:20.966Z,30.70
2018-02-20T09:04:48.622Z,30.07
2018-02-20T09:07:16.259Z,32.17
2018-02-20T09:09:43.861Z,34.20
2018-02-20T09:12:11.494Z,33.13
2018-02-20T09:14:39.118Z,32.43
2018-02-20T09:17:07.516Z,36.27
2018-02-20T09:19:35.898Z,28.93
2018-02-20T09:22:04.358Z,28.97
2018-02-20T09:24:32.018Z,32.90
2018-02-20T09:26:59.684Z,29.70
2018-02-20T09:29:27.306Z,28.87
2018-02-20T09:31:54.927Z,28.47
2018-02-20T09:34:22.543Z,29.70
2018-02-20T09:36:50.148Z,30.33
2018-02-20T09:39:18.098Z,28.03
2018-02-20T09:41:45.761Z,29.37
2018-02-20T09:44:13.377Z,26.17
2018-02-20T09:46:41.138Z,28.50
2018-02-20T09:49:09.541Z,28.20
2018-02-20T09:51:37.920Z,28.67
2018-02-20T09:54:06.283Z,27.50
2018-02-20T09:56:33.965Z,28.70
2018-02-20T09:59:01.583Z,32.50
2018-02-20T10:01:29.207Z,28.47
2018-02-20T10:03:57.585Z,28.97
2018-02-20T10:06:25.967Z,30.33
2018-02-20T10:08:54.335Z,27.60
2018-02-20T10:11:23.440Z,27.60
2018-02-20T10:13:51.082Z,28.03
2018-02-20T10:16:18.721Z,27.80
2018-02-20T10:18:46.375Z,25.67
2018-02-20T10:21:13.980Z,28.97
2018-02-20T10:23:41.577Z,28.70
2018-02-20T10:26:09.988Z,28.63
2018-02-20T10:28:37.605Z,24.93
2018-02-20T10:31:05.211Z,26.77
2018-02-20T10:33:33.574Z,25.20
2018-02-20T10:36:01.971Z,26.90
2018-02-20T10:38:30.371Z,27.53
2018-02-20T10:40:58.024Z,29.10
2018-02-20T10:43:26.456Z,26.10
2018-02-20T10:45:54.067Z,26.33
2018-02-20T10:48:22.454Z,23.90
2018-02-20T10:50:50.830Z,27.80
2018-02-20T10:53:19.566Z,24.80
2018-02-20T10:55:47.264Z,26.03
2018-02-20T10:58:14.906Z,27.23
2018-02-20T11:00:42.525Z,25.07
2018-02-20T11:03:10.978Z,26.13
2018-02-20T11:05:38.598Z,23.80
2018-02-20T11:08:06.241Z,25.40
2018-02-20T11:10:34.662Z,25.60
2018-02-20T11:13:02.261Z,26.67
2018-02-20T11:15:29.899Z,25.37
2018-02-20T11:17:57.672Z,23.60
2018-02-20T11:20:25.468Z,24.60
2018-02-20T11:22:54.628Z,23.07
2018-02-20T11:25:22.265Z,25.17
2018-02-20T11:27:50.666Z,24.17
2018-02-20T11:30:18.277Z,20.27
2018-02-20T11:32:46.238Z,24.30
2018-02-20T11:35:13.855Z,22.10
2018-02-20T11:37:42.221Z,24.40
2018-02-20T11:40:09.844Z,26.17
2018-02-20T11:42:37.453Z,26.47
2018-02-20T11:45:05.827Z,28.20
2018-02-20T11:47:34.936Z,22.53
2018-02-20T11:50:04.055Z,27.40
2018-02-20T11:52:32.431Z,27.97
2018-02-20T11:55:01.352Z,27.97
2018-02-20T11:57:28.954Z,28.20
2018-02-20T11:59:56.964Z,30.70
2018-02-20T12:02:25.342Z,28.60
2018-02-20T12:04:53.712Z,30.00
2018-02-20T12:07:21.325Z,30.07
2018-02-20T12:09:48.979Z,32.80
2018-02-20T12:12:17.357Z,30.63
2018-02-20T12:14:45.733Z,31.27
2018-02-20T12:17:14.114Z,30.60
2018-02-20T12:19:42.481Z,31.30
2018-02-20T12:22:10.078Z,29.40
2018-02-20T12:24:37.699Z,29.73
2018-02-20T12:27:05.290Z,30.87
2018-02-20T12:29:33.924Z,29.13
2018-02-20T12:32:01.528Z,30.93
2018-02-20T12:34:29.942Z,36.87
2018-02-20T12:36:58.302Z,30.70
2018-02-20T12:39:25.910Z,28.60
2018-02-20T12:41:53.574Z,28.80
2018-02-20T12:44:21.186Z,26.90
2018-02-20T12:46:48.808Z,28.77
2018-02-20T12:49:16.420Z,26.57
2018-02-20T12:51:44.152Z,28.97
2018-02-20T12:54:11.772Z,25.60
2018-02-20T12:56:39.373Z,25.37
2018-02-20T12:59:07.146Z,27.63
2018-02-20T13:01:35.485Z,28.00
2018-02-20T13:04:06.502Z,25.27
2018-02-20T13:06:34.220Z,25.90
2018-02-20T13:09:01.896Z,25.63
2018-02-20T13:11:29.502Z,24.87
2018-02-20T13:13:57.110Z,25.07
2018-02-20T13:16:25.748Z,26.03
2018-02-20T13:18:53.349Z,25.47
2018-02-20T13:21:21.740Z,26.37
2018-02-20T13:23:50.112Z,26.27
2018-02-20T13:26:17.762Z,29.33
2018-02-20T13:28:45.369Z,28.47
2018-02-20T13:31:13.037Z,30.70
2018-02-20T13:33:40.718Z,31.40
2018-02-20T13:36:08.531Z,32.17
2018-02-20T13:38:36.199Z,31.47
2018-02-20T13:41:03.825Z,32.20
2018-02-20T13:43:31.478Z,32.90
2018-02-20T13:45:59.120Z,30.03
2018-02-20T13:48:26.721Z,33.77
2018-02-20T13:50:54.440Z,32.60
2018-02-20T13:53:22.156Z,32.47
2018-02-20T13:55:49.765Z,30.00
2018-02-20T13:58:18.175Z,31.00
2018-02-20T14:00:46.569Z,28.60
2018-02-20T14:03:14.991Z,30.60
2018-02-20T14:05:42.608Z,32.97
2018-02-20T14:08:11.006Z,29.30
2018-02-20T14:10:38.672Z,33.23
2018-02-20T14:13:07.074Z,29.27
2018-02-20T14:15:34.831Z,28.53
2018-02-20T14:18:03.214Z,29.20
2018-02-20T14:20:30.870Z,31.33
2018-02-20T14:22:59.345Z,32.83
2018-02-20T14:25:27.010Z,32.67
2018-02-20T14:27:55.400Z,27.67
2018-02-20T14:30:23.895Z,33.87
2018-02-20T14:32:51.569Z,35.90
2018-02-20T14:35:19.584Z,34.77
2018-02-20T14:37:47.260Z,32.80
2018-02-20T14:40:14.965Z,34.00
2018-02-20T14:42:43.472Z,34.57
2018-02-20T14:45:11.121Z,30.70
2018-02-20T14:47:44.242Z,34.93
2018-02-20T14:50:11.893Z,33.97
2018-02-20T14:52:39.595Z,33.43
2018-02-20T14:55:07.366Z,33.77
2018-02-20T14:57:35.028Z,33.30
2018-02-20T15:00:02.720Z,31.60
2018-02-20T15:02:31.660Z,33.20
2018-02-20T15:04:59.318Z,31.50
2018-02-20T15:07:27.755Z,32.90
2018-02-20T15:09:55.370Z,35.53
2018-02-20T15:12:23.819Z,30.87
2018-02-20T15:14:52.244Z,31.87
2018-02-20T15:17:20.041Z,31.37
2018-02-20T15:19:47.693Z,30.77
2018-02-20T15:22:15.312Z,30.57
2018-02-20T15:24:42.955Z,30.70
2018-02-20T15:27:10.608Z,30.23
2018-02-20T15:29:38.277Z,27.60
2018-02-20T15:32:05.909Z,29.40
2018-02-20T15:34:33.576Z,28.83
2018-02-20T15:37:02.015Z,29.60
2018-02-20T15:39:29.648Z,30.13
2018-02-20T15:41:57.276Z,28.40
2018-02-20T15:44:25.664Z,29.40
2018-02-20T15:46:54.045Z,29.37
2018-02-20T15:49:22.467Z,28.77
2018-02-20T15:51:50.093Z,32.70
2018-02-20T15:54:18.487Z,35.70
2018-02-20T15:56:47.096Z,28.80
2018-02-20T15:59:14.771Z,37.80
2018-02-20T16:01:42.487Z,49.70
2018-02-20T16:04:10.215Z,67.10
2018-02-20T16:06:38.135Z,48.17
2018-02-20T16:09:06.560Z,33.80
2018-02-20T16:11:34.243Z,39.63
2018-02-20T16:14:04.409Z,40.37
2018-02-20T16:16:32.030Z,30.93
2018-02-20T16:18:59.693Z,38.43
2018-02-20T16:21:27.333Z,35.33
2018-02-20T16:23:55.789Z,34.50
2018-02-20T16:26:24.173Z,33.57
2018-02-20T16:28:52.652Z,36.13
2018-02-20T16:31:25.693Z,33.07
2018-02-20T16:33:53.381Z,34.73
2018-02-20T16:36:21.015Z,31.87
2018-02-20T16:38:48.631Z,36.73
2018-02-20T16:41:16.318Z,32.57
2018-02-20T16:43:44.840Z,34.17
2018-02-20T16:46:12.481Z,31.40
2018-02-20T16:48:40.894Z,35.10
2018-02-20T16:51:09.425Z,33.93
2018-02-20T16:53:37.050Z,33.17
2018-02-20T16:56:04.696Z,32.07
2018-02-20T16:58:32.338Z,35.33
2018-02-20T17:01:00.752Z,33.07
2018-02-20T17:03:28.400Z,34.73
2018-02-20T17:05:56.815Z,33.13
2018-02-20T17:08:24.473Z,37.70
2018-02-20T17:10:52.160Z,33.93
2018-02-20T17:13:19.809Z,36.63
2018-02-20T17:15:47.577Z,38.00
2018-02-20T17:18:15.264Z,35.90
2018-02-20T17:20:42.887Z,34.67
2018-02-20T17:23:11.330Z,33.30
2018-02-20T17:25:39.011Z,35.97
2018-02-20T17:28:07.436Z,34.73
2018-02-20T17:30:35.136Z,31.83
2018-02-20T17:33:03.324Z,32.70
2018-02-20T17:35:31.035Z,34.43
2018-02-20T17:38:00.787Z,34.27
2018-02-20T17:40:27.327Z,37.03
2018-02-20T17:42:55.027Z,33.10
2018-02-20T17:45:22.842Z,38.67
2018-02-20T17:47:50.885Z,33.73
2018-02-20T17:50:19.346Z,35.90
2018-02-20T17:52:47.028Z,37.77
2018-02-20T17:55:14.671Z,38.60
2018-02-20T17:57:42.495Z,39.77
2018-02-20T18:00:10.883Z,38.27
2018-02-20T18:02:39.298Z,43.37
2018-02-20T18:05:07.003Z,40.70
2018-02-20T18:07:34.777Z,39.53
2018-02-20T18:10:02.496Z,38.77
2018-02-20T18:12:30.216Z,45.97
2018-02-20T18:14:58.650Z,40.90
2018-02-20T18:17:26.343Z,39.60
2018-02-20T18:19:54.129Z,37.20
2018-02-20T18:22:22.567Z,40.90
2018-02-20T18:24:50.218Z,39.57
2018-02-20T18:27:18.645Z,37.33
2018-02-20T18:29:46.323Z,39.73
2018-02-20T18:32:14.285Z,38.03
2018-02-20T18:34:41.959Z,38.97
2018-02-20T18:37:10.330Z,34.93
2018-02-20T18:39:38.077Z,40.97
2018-02-20T18:42:05.805Z,40.27
2018-02-20T18:44:34.274Z,39.07
2018-02-20T18:47:02.417Z,38.63
2018-02-20T18:49:30.150Z,38.50
2018-02-20T18:51:58.660Z,39.33
2018-02-20T18:54:27.209Z,39.23
2018-02-20T18:56:55.777Z,39.83
2018-02-20T18:59:23.437Z,39.50
2018-02-20T19:01:51.558Z,41.40
2018-02-20T19:04:20.760Z,37.30
2018-02-20T19:06:49.229Z,40.17
2018-02-20T19:09:16.958Z,40.90
2018-02-20T19:11:45.637Z,39.73
2018-02-20T19:14:13.331Z,40.10
2018-02-20T19:16:41.113Z,44.57
2018-02-20T19:19:09.594Z,42.47
2018-02-20T19:21:37.430Z,46.60
2018-02-20T19:24:05.372Z,44.03
2018-02-20T19:26:33.836Z,46.67
2018-02-20T19:29:02.481Z,47.10
2018-02-20T19:31:30.346Z,44.83
2018-02-20T19:33:58.174Z,45.43
2018-02-20T19:36:26.689Z,40.87
2018-02-20T19:38:54.391Z,44.57
2018-02-20T19:41:22.080Z,44.77
2018-02-20T19:43:51.253Z,44.57
2018-02-20T19:46:18.955Z,42.03
2018-02-20T19:48:47.432Z,44.03
2018-02-20T19:51:15.194Z,45.57
2018-02-20T19:53:42.975Z,45.40
2018-02-20T19:56:12.046Z,45.83
2018-02-20T19:58:39.757Z,41.27
2018-02-20T20:01:08.238Z,45.40
2018-02-20T20:03:36.714Z,41.57
2018-02-20T20:06:04.527Z,45.87
2018-02-20T20:08:32.401Z,46.43
2018-02-20T20:11:00.128Z,50.13
2018-02-20T20:13:27.954Z,46.50
2018-02-20T20:15:56.747Z,44.63
2018-02-20T20:18:25.432Z,47.20
2018-02-20T20:20:53.246Z,46.30
2018-02-20T20:23:21.758Z,43.70
2018-02-20T20:25:49.489Z,47.43
2018-02-20T20:28:17.360Z,45.07
2018-02-20T20:30:45.060Z,47.23
2018-02-20T20:33:13.534Z,45.60
2018-02-20T20:35:42.221Z,49.57
2018-02-20T20:38:09.938Z,47.07
2018-02-20T20:40:38.114Z,48.60
2018-02-20T20:43:06.755Z,46.13
2018-02-20T20:45:34.679Z,48.50
2018-02-20T20:48:03.165Z,45.27
2018-02-20T20:50:30.879Z,45.20
2018-02-20T20:52:59.388Z,44.30
2018-02-20T20:55:27.855Z,46.73
2018-02-20T20:57:56.487Z,50.53
2018-02-20T21:00:24.162Z,47.37
2018-02-20T21:02:51.896Z,48.27
2018-02-20T21:05:19.686Z,50.13
2018-02-20T21:07:48.168Z,47.17
2018-02-20T21:10:15.842Z,51.80
2018-02-20T21:12:43.533Z,47.60
2018-02-20T21:15:11.207Z,45.90
2018-02-20T21:17:38.897Z,47.30
2018-02-20T21:20:06.586Z,44.67
2018-02-20T21:22:35.074Z,48.97
2018-02-20T21:25:03.574Z,47.87
2018-02-20T21:27:31.282Z,48.47
2018-02-20T21:29:58.991Z,53.00
2018-02-20T21:32:27.470Z,47.47
2018-02-20T21:34:55.089Z,52.67
2018-02-20T21:37:22.844Z,51.17
2018-02-20T21:39:50.526Z,49.83
2018-02-20T21:42:18.898Z,48.00
2018-02-20T21:44:47.536Z,49.83
2018-02-20T21:47:15.215Z,49.70
2018-02-20T21:49:43.698Z,48.70
2018-02-20T21:52:12.120Z,49.07
2018-02-20T21:54:39.806Z,48.27
2018-02-20T21:57:07.508Z,54.53
2018-02-20T21:59:35.168Z,50.83
2018-02-20T22:02:02.810Z,48.97
2018-02-20T22:04:30.454Z,46.57
2018-02-20T22:06:58.207Z,48.43
2018-02-20T22:09:25.849Z,51.60
2018-02-20T22:11:53.495Z,51.23
2018-02-20T22:14:21.205Z,47.27
2018-02-20T22:16:49.701Z,49.83
2018-02-20T22:19:17.334Z,51.80
2018-02-20T22:21:45.736Z,49.90
2018-02-20T22:24:14.400Z,51.27
2018-02-20T22:26:41.997Z,53.87
2018-02-20T22:29:10.401Z,49.73
2018-02-20T22:31:38.029Z,49.63
2018-02-20T22:34:06.424Z,48.70
2018-02-20T22:36:34.832Z,51.97
2018-02-20T22:39:02.441Z,50.57
2018-02-20T22:41:30.199Z,52.27
2018-02-20T22:43:57.823Z,52.57
2018-02-20T22:46:25.474Z,49.30
2018-02-20T22:48:53.859Z,51.87
2018-02-20T22:51:22.248Z,51.23
2018-02-20T22:53:50.653Z,52.30
2018-02-20T22:56:18.281Z,51.63
2018-02-20T22:58:45.998Z,51.67
2018-02-20T23:01:13.708Z,49.00
2018-02-20T23:03:42.118Z,53.30
2018-02-20T23:06:10.492Z,52.00
2018-02-20T23:08:38.162Z,52.40
2018-02-20T23:11:06.588Z,49.00
2018-02-20T23:13:34.293Z,53.47
2018-02-20T23:16:02.696Z,51.10
2018-02-20T23:18:31.061Z,49.57
2018-02-20T23:20:58.692Z,53.60
2018-02-20T23:23:26.280Z,49.40
2018-02-20T23:25:54.010Z,51.50
2018-02-20T23:28:21.797Z,53.83
2018-02-20T23:30:49.402Z,49.10
2018-02-20T23:33:17.806Z,53.60
2018-02-20T23:35:46.182Z,49.57
2018-02-20T23:38:14.660Z,49.57
2018-02-20T23:40:42.268Z,49.43
2018-02-20T23:43:09.905Z,48.50
2018-02-20T23:45:38.271Z,51.30
2018-02-20T23:48:06.897Z,48.30
2018-02-20T23:50:34.538Z,53.13
2018-02-20T23:53:02.905Z,51.10
2018-02-20T23:55:32.054Z,51.80
2018-02-20T23:57:59.669Z,49.17
